sensor_id;sensor_type;location;lat;lon;timestamp;pressure;altitude;pressure_sealevel;temperature;humidity
47636;BME280;33364;50.766;15.338;2023-08-17T00:00:03;95470.31;;;18.34;83.08
47636;BME280;33364;50.766;15.338;2023-08-17T00:02:30;95466.31;;;18.11;83.83
47636;BME280;33364;50.766;15.338;2023-08-17T00:04:55;95467.88;;;18.12;84.36
47636;BME280;33364;50.766;15.338;2023-08-17T00:07:21;95469.94;;;18.06;84.55
47636;BME280;33364;50.766;15.338;2023-08-17T00:09:47;95465.22;;;18.03;84.70
47636;BME280;33364;50.766;15.338;2023-08-17T00:12:13;95458.59;;;18.09;84.78
47636;BME280;33364;50.766;15.338;2023-08-17T00:14:39;95462.38;;;18.08;84.69
47636;BME280;33364;50.766;15.338;2023-08-17T00:17:05;95459.69;;;18.08;84.42
47636;BME280;33364;50.766;15.338;2023-08-17T00:19:31;95448.88;;;18.05;84.47
47636;BME280;33364;50.766;15.338;2023-08-17T00:21:57;95453.00;;;18.02;84.92
47636;BME280;33364;50.766;15.338;2023-08-17T00:24:22;95447.78;;;18.06;84.64
47636;BME280;33364;50.766;15.338;2023-08-17T00:26:49;95444.16;;;18.10;84.46
47636;BME280;33364;50.766;15.338;2023-08-17T00:29:14;95448.09;;;18.13;82.95
47636;BME280;33364;50.766;15.338;2023-08-17T00:31:41;95443.28;;;18.27;82.87
47636;BME280;33364;50.766;15.338;2023-08-17T00:34:07;95446.63;;;18.15;83.86
47636;BME280;33364;50.766;15.338;2023-08-17T00:36:33;95444.94;;;18.11;84.75
47636;BME280;33364;50.766;15.338;2023-08-17T00:38:58;95444.94;;;18.11;83.88
47636;BME280;33364;50.766;15.338;2023-08-17T00:41:24;95444.00;;;18.07;84.34
47636;BME280;33364;50.766;15.338;2023-08-17T00:43:50;95438.00;;;18.10;83.12
47636;BME280;33364;50.766;15.338;2023-08-17T00:46:16;95439.09;;;18.18;83.12
47636;BME280;33364;50.766;15.338;2023-08-17T00:48:42;95432.97;;;18.17;83.40
47636;BME280;33364;50.766;15.338;2023-08-17T00:51:09;95441.78;;;18.09;83.90
47636;BME280;33364;50.766;15.338;2023-08-17T00:53:35;95447.13;;;18.09;83.91
47636;BME280;33364;50.766;15.338;2023-08-17T00:56:02;95456.28;;;18.08;84.65
47636;BME280;33364;50.766;15.338;2023-08-17T00:58:28;95458.28;;;18.11;84.53
47636;BME280;33364;50.766;15.338;2023-08-17T01:00:54;95465.69;;;18.05;84.71
47636;BME280;33364;50.766;15.338;2023-08-17T01:03:22;95463.53;;;17.99;85.06
47636;BME280;33364;50.766;15.338;2023-08-17T01:05:48;95475.78;;;18.00;85.21
47636;BME280;33364;50.766;15.338;2023-08-17T01:08:14;95489.91;;;18.09;84.72
47636;BME280;33364;50.766;15.338;2023-08-17T01:11:05;95515.53;;;18.19;84.28
47636;BME280;33364;50.766;15.338;2023-08-17T01:16:12;95517.63;;;17.96;85.21
47636;BME280;33364;50.766;15.338;2023-08-17T01:18:40;95496.84;;;18.01;85.17
47636;BME280;33364;50.766;15.338;2023-08-17T01:21:08;95505.81;;;17.88;85.58
47636;BME280;33364;50.766;15.338;2023-08-17T01:23:35;95495.59;;;17.99;85.04
47636;BME280;33364;50.766;15.338;2023-08-17T01:26:01;95481.28;;;17.95;85.11
47636;BME280;33364;50.766;15.338;2023-08-17T01:28:27;95480.38;;;17.82;85.85
47636;BME280;33364;50.766;15.338;2023-08-17T01:33:40;95478.63;;;17.95;85.54
47636;BME280;33364;50.766;15.338;2023-08-17T01:36:19;95469.19;;;17.97;84.94
47636;BME280;33364;50.766;15.338;2023-08-17T01:38:46;95469.25;;;17.71;86.22
47636;BME280;33364;50.766;15.338;2023-08-17T01:41:12;95465.78;;;17.80;86.04
47636;BME280;33364;50.766;15.338;2023-08-17T01:43:44;95453.34;;;17.84;85.85
47636;BME280;33364;50.766;15.338;2023-08-17T01:46:16;95464.22;;;17.79;85.97
47636;BME280;33364;50.766;15.338;2023-08-17T01:48:42;95462.19;;;17.67;86.51
47636;BME280;33364;50.766;15.338;2023-08-17T01:51:10;95460.31;;;17.67;86.83
47636;BME280;33364;50.766;15.338;2023-08-17T01:53:36;95450.53;;;17.80;86.44
47636;BME280;33364;50.766;15.338;2023-08-17T01:56:02;95451.16;;;17.86;85.98
47636;BME280;33364;50.766;15.338;2023-08-17T01:58:28;95446.28;;;17.79;85.79
47636;BME280;33364;50.766;15.338;2023-08-17T02:00:53;95450.84;;;17.79;85.99
47636;BME280;33364;50.766;15.338;2023-08-17T02:03:19;95435.91;;;17.78;86.21
47636;BME280;33364;50.766;15.338;2023-08-17T02:05:46;95423.34;;;17.78;85.78
47636;BME280;33364;50.766;15.338;2023-08-17T02:08:11;95434.34;;;17.77;85.66
47636;BME280;33364;50.766;15.338;2023-08-17T02:10:37;95420.84;;;17.73;85.85
47636;BME280;33364;50.766;15.338;2023-08-17T02:13:04;95426.66;;;17.75;86.01
47636;BME280;33364;50.766;15.338;2023-08-17T02:15:30;95420.53;;;17.75;85.43
47636;BME280;33364;50.766;15.338;2023-08-17T02:18:00;95424.78;;;17.76;85.29
47636;BME280;33364;50.766;15.338;2023-08-17T02:20:26;95426.38;;;17.68;85.56
47636;BME280;33364;50.766;15.338;2023-08-17T02:22:52;95427.78;;;17.57;86.05
47636;BME280;33364;50.766;15.338;2023-08-17T02:25:18;95421.03;;;17.51;86.48
47636;BME280;33364;50.766;15.338;2023-08-17T02:27:44;95424.81;;;17.50;87.00
47636;BME280;33364;50.766;15.338;2023-08-17T02:30:10;95411.13;;;17.51;87.04
47636;BME280;33364;50.766;15.338;2023-08-17T02:32:36;95414.63;;;17.43;87.43
47636;BME280;33364;50.766;15.338;2023-08-17T02:35:02;95412.09;;;17.55;86.93
47636;BME280;33364;50.766;15.338;2023-08-17T02:37:28;95408.16;;;17.61;86.57
47636;BME280;33364;50.766;15.338;2023-08-17T02:39:54;95409.88;;;17.57;86.69
47636;BME280;33364;50.766;15.338;2023-08-17T02:42:19;95408.28;;;17.56;87.09
47636;BME280;33364;50.766;15.338;2023-08-17T02:44:45;95414.75;;;17.47;87.71
47636;BME280;33364;50.766;15.338;2023-08-17T02:47:11;95419.31;;;17.46;87.88
47636;BME280;33364;50.766;15.338;2023-08-17T02:49:37;95411.78;;;17.48;88.06
47636;BME280;33364;50.766;15.338;2023-08-17T02:52:03;95414.28;;;17.53;87.83
47636;BME280;33364;50.766;15.338;2023-08-17T02:54:29;95414.63;;;17.60;87.45
47636;BME280;33364;50.766;15.338;2023-08-17T02:56:57;95416.94;;;17.62;87.82
47636;BME280;33364;50.766;15.338;2023-08-17T02:59:23;95423.06;;;17.62;87.73
47636;BME280;33364;50.766;15.338;2023-08-17T03:01:48;95425.28;;;17.60;88.18
47636;BME280;33364;50.766;15.338;2023-08-17T03:04:14;95420.53;;;17.66;87.70
47636;BME280;33364;50.766;15.338;2023-08-17T03:06:40;95422.47;;;17.65;87.41
47636;BME280;33364;50.766;15.338;2023-08-17T03:09:06;95420.53;;;17.66;87.35
47636;BME280;33364;50.766;15.338;2023-08-17T03:11:32;95413.19;;;17.63;87.07
47636;BME280;33364;50.766;15.338;2023-08-17T03:13:58;95407.34;;;17.69;86.86
47636;BME280;33364;50.766;15.338;2023-08-17T03:16:27;95414.88;;;17.67;87.08
47636;BME280;33364;50.766;15.338;2023-08-17T03:18:53;95408.16;;;17.61;87.01
47636;BME280;33364;50.766;15.338;2023-08-17T03:21:18;95406.44;;;17.48;87.27
47636;BME280;33364;50.766;15.338;2023-08-17T03:23:45;95405.00;;;17.51;87.24
47636;BME280;33364;50.766;15.338;2023-08-17T03:26:11;95403.28;;;17.46;87.58
47636;BME280;33364;50.766;15.338;2023-08-17T03:28:37;95406.56;;;17.52;87.62
47636;BME280;33364;50.766;15.338;2023-08-17T03:31:03;95401.53;;;17.50;87.24
47636;BME280;33364;50.766;15.338;2023-08-17T03:33:29;95407.06;;;17.45;87.59
47636;BME280;33364;50.766;15.338;2023-08-17T03:35:55;95409.44;;;17.38;87.55
47636;BME280;33364;50.766;15.338;2023-08-17T03:38:21;95409.44;;;17.29;88.05
47636;BME280;33364;50.766;15.338;2023-08-17T03:40:47;95416.97;;;17.36;88.01
47636;BME280;33364;50.766;15.338;2023-08-17T03:43:13;95423.91;;;17.28;87.78
47636;BME280;33364;50.766;15.338;2023-08-17T03:45:41;95426.72;;;17.15;88.15
47636;BME280;33364;50.766;15.338;2023-08-17T03:48:07;95428.47;;;17.11;88.21
47636;BME280;33364;50.766;15.338;2023-08-17T03:50:33;95435.38;;;17.12;88.31
47636;BME280;33364;50.766;15.338;2023-08-17T03:52:59;95432.88;;;17.07;88.43
47636;BME280;33364;50.766;15.338;2023-08-17T03:55:24;95436.47;;;17.02;88.49
47636;BME280;33364;50.766;15.338;2023-08-17T03:57:50;95435.69;;;17.02;88.80
47636;BME280;33364;50.766;15.338;2023-08-17T04:00:16;95433.16;;;17.14;88.28
47636;BME280;33364;50.766;15.338;2023-08-17T04:02:42;95442.75;;;17.15;88.34
47636;BME280;33364;50.766;15.338;2023-08-17T04:05:08;95446.81;;;17.21;88.27
47636;BME280;33364;50.766;15.338;2023-08-17T04:07:34;95442.13;;;17.18;88.39
47636;BME280;33364;50.766;15.338;2023-08-17T04:10:00;95445.88;;;17.25;88.00
47636;BME280;33364;50.766;15.338;2023-08-17T04:12:26;95451.69;;;17.19;88.16
47636;BME280;33364;50.766;15.338;2023-08-17T04:17:18;95460.47;;;17.11;88.43
47636;BME280;33364;50.766;15.338;2023-08-17T04:19:43;95469.25;;;17.03;88.57
47636;BME280;33364;50.766;15.338;2023-08-17T04:22:09;95463.47;;;17.09;88.51
47636;BME280;33364;50.766;15.338;2023-08-17T04:24:35;95457.03;;;17.02;88.66
47636;BME280;33364;50.766;15.338;2023-08-17T04:27:01;95473.03;;;17.02;88.96
47636;BME280;33364;50.766;15.338;2023-08-17T04:29:27;95469.88;;;17.00;88.83
47636;BME280;33364;50.766;15.338;2023-08-17T04:31:53;95468.16;;;17.04;88.53
47636;BME280;33364;50.766;15.338;2023-08-17T04:34:19;95466.47;;;17.08;88.43
47636;BME280;33364;50.766;15.338;2023-08-17T04:36:46;95472.25;;;17.01;88.69
47636;BME280;33364;50.766;15.338;2023-08-17T04:39:11;95476.97;;;17.04;88.45
47636;BME280;33364;50.766;15.338;2023-08-17T04:41:38;95473.97;;;17.06;88.50
47636;BME280;33364;50.766;15.338;2023-08-17T04:44:04;95479.78;;;17.16;88.60
47636;BME280;33364;50.766;15.338;2023-08-17T04:46:30;95484.19;;;17.21;88.45
47636;BME280;33364;50.766;15.338;2023-08-17T04:48:55;95482.28;;;17.30;88.03
47636;BME280;33364;50.766;15.338;2023-08-17T04:51:21;95485.16;;;17.34;87.82
47636;BME280;33364;50.766;15.338;2023-08-17T04:53:47;95484.47;;;17.45;87.67
47636;BME280;33364;50.766;15.338;2023-08-17T04:56:14;95489.38;;;17.43;88.09
47636;BME280;33364;50.766;15.338;2023-08-17T04:58:40;95488.72;;;17.46;88.17
47636;BME280;33364;50.766;15.338;2023-08-17T05:01:06;95488.25;;;17.53;88.07
47636;BME280;33364;50.766;15.338;2023-08-17T05:03:31;95488.41;;;17.56;88.10
47636;BME280;33364;50.766;15.338;2023-08-17T05:05:57;95496.28;;;17.61;88.15
47636;BME280;33364;50.766;15.338;2023-08-17T05:08:23;95497.53;;;17.72;87.92
47636;BME280;33364;50.766;15.338;2023-08-17T05:10:49;95489.53;;;17.81;87.35
47636;BME280;33364;50.766;15.338;2023-08-17T05:13:15;95491.84;;;17.83;88.08
47636;BME280;33364;50.766;15.338;2023-08-17T05:15:40;95487.75;;;17.94;88.02
47636;BME280;33364;50.766;15.338;2023-08-17T05:18:07;95485.53;;;17.96;87.77
47636;BME280;33364;50.766;15.338;2023-08-17T05:20:33;95488.84;;;18.01;87.58
47636;BME280;33364;50.766;15.338;2023-08-17T05:22:59;95488.97;;;18.05;87.57
47636;BME280;33364;50.766;15.338;2023-08-17T05:25:25;95489.28;;;18.03;88.10
47636;BME280;33364;50.766;15.338;2023-08-17T05:27:51;95489.75;;;18.05;88.42
47636;BME280;33364;50.766;15.338;2023-08-17T05:30:17;95498.25;;;18.07;88.20
47636;BME280;33364;50.766;15.338;2023-08-17T05:32:43;95505.44;;;18.15;87.86
47636;BME280;33364;50.766;15.338;2023-08-17T05:35:09;95496.75;;;18.27;87.57
47636;BME280;33364;50.766;15.338;2023-08-17T05:37:35;95496.91;;;18.31;87.51
47636;BME280;33364;50.766;15.338;2023-08-17T05:40:01;95504.44;;;18.37;87.88
47636;BME280;33364;50.766;15.338;2023-08-17T05:42:26;95500.28;;;18.48;87.08
47636;BME280;33364;50.766;15.338;2023-08-17T05:44:52;95495.88;;;18.61;86.84
47636;BME280;33364;50.766;15.338;2023-08-17T05:47:18;95497.50;;;18.74;86.70
47636;BME280;33364;50.766;15.338;2023-08-17T05:49:44;95484.88;;;18.83;85.97
47636;BME280;33364;50.766;15.338;2023-08-17T05:52:11;95498.06;;;18.88;86.09
47636;BME280;33364;50.766;15.338;2023-08-17T05:54:37;95500.50;;;19.02;85.77
47636;BME280;33364;50.766;15.338;2023-08-17T05:57:03;95493.66;;;19.13;85.83
47636;BME280;33364;50.766;15.338;2023-08-17T05:59:29;95501.75;;;19.25;85.54
47636;BME280;33364;50.766;15.338;2023-08-17T06:01:56;95506.38;;;19.37;85.23
47636;BME280;33364;50.766;15.338;2023-08-17T06:04:21;95506.78;;;19.48;85.58
47636;BME280;33364;50.766;15.338;2023-08-17T06:06:47;95508.25;;;19.45;85.39
47636;BME280;33364;50.766;15.338;2023-08-17T06:09:13;95509.03;;;19.46;85.05
47636;BME280;33364;50.766;15.338;2023-08-17T06:11:40;95506.38;;;19.46;84.73
47636;BME280;33364;50.766;15.338;2023-08-17T06:14:06;95507.13;;;19.46;85.25
47636;BME280;33364;50.766;15.338;2023-08-17T06:16:32;95505.38;;;19.50;85.39
47636;BME280;33364;50.766;15.338;2023-08-17T06:18:58;95503.81;;;19.49;85.99
47636;BME280;33364;50.766;15.338;2023-08-17T06:21:24;95501.03;;;19.58;85.82
47636;BME280;33364;50.766;15.338;2023-08-17T06:23:50;95501.94;;;19.62;85.73
47636;BME280;33364;50.766;15.338;2023-08-17T06:26:16;95500.63;;;19.68;85.13
47636;BME280;33364;50.766;15.338;2023-08-17T06:28:41;95507.41;;;19.86;84.52
47636;BME280;33364;50.766;15.338;2023-08-17T06:31:07;95501.72;;;20.00;85.59
47636;BME280;33364;50.766;15.338;2023-08-17T06:33:33;95504.84;;;19.90;86.02
47636;BME280;33364;50.766;15.338;2023-08-17T06:35:59;95501.09;;;20.03;85.51
47636;BME280;33364;50.766;15.338;2023-08-17T06:38:24;95508.03;;;20.16;86.09
47636;BME280;33364;50.766;15.338;2023-08-17T06:40:51;95501.22;;;20.31;86.46
47636;BME280;33364;50.766;15.338;2023-08-17T06:43:18;95509.78;;;20.45;86.91
47636;BME280;33364;50.766;15.338;2023-08-17T06:45:44;95513.50;;;20.64;85.34
47636;BME280;33364;50.766;15.338;2023-08-17T06:48:10;95515.28;;;20.85;84.45
47636;BME280;33364;50.766;15.338;2023-08-17T06:50:37;95505.97;;;21.06;84.84
47636;BME280;33364;50.766;15.338;2023-08-17T06:53:04;95508.19;;;21.29;83.65
47636;BME280;33364;50.766;15.338;2023-08-17T06:55:30;95511.63;;;21.41;82.56
47636;BME280;33364;50.766;15.338;2023-08-17T06:57:57;95505.94;;;21.71;82.53
47636;BME280;33364;50.766;15.338;2023-08-17T07:00:23;95504.06;;;21.87;82.35
47636;BME280;33364;50.766;15.338;2023-08-17T07:02:49;95505.78;;;22.07;82.59
47636;BME280;33364;50.766;15.338;2023-08-17T07:05:16;95512.25;;;22.34;82.77
47636;BME280;33364;50.766;15.338;2023-08-17T07:07:42;95509.03;;;22.28;81.10
47636;BME280;33364;50.766;15.338;2023-08-17T07:10:09;95505.41;;;22.52;78.78
47636;BME280;33364;50.766;15.338;2023-08-17T07:12:37;95509.75;;;22.72;79.67
47636;BME280;33364;50.766;15.338;2023-08-17T07:15:04;95510.53;;;22.73;77.81
47636;BME280;33364;50.766;15.338;2023-08-17T07:17:30;95513.63;;;22.91;76.48
47636;BME280;33364;50.766;15.338;2023-08-17T07:19:56;95515.28;;;22.95;76.90
47636;BME280;33364;50.766;15.338;2023-08-17T07:22:22;95513.72;;;23.29;77.61
47636;BME280;33364;50.766;15.338;2023-08-17T07:24:48;95523.94;;;23.39;77.92
47636;BME280;33364;50.766;15.338;2023-08-17T07:27:13;95518.59;;;23.58;76.34
47636;BME280;33364;50.766;15.338;2023-08-17T07:29:39;95516.03;;;23.85;76.70
47636;BME280;33364;50.766;15.338;2023-08-17T07:32:05;95521.59;;;23.92;68.01
47636;BME280;33364;50.766;15.338;2023-08-17T07:34:31;95520.41;;;24.12;73.00
47636;BME280;33364;50.766;15.338;2023-08-17T07:36:57;95520.59;;;24.19;73.98
47636;BME280;33364;50.766;15.338;2023-08-17T07:39:23;95528.53;;;24.31;71.92
47636;BME280;33364;50.766;15.338;2023-08-17T07:41:49;95520.78;;;24.30;67.01
47636;BME280;33364;50.766;15.338;2023-08-17T07:44:15;95524.81;;;24.39;69.57
47636;BME280;33364;50.766;15.338;2023-08-17T07:46:40;95527.59;;;24.69;68.71
47636;BME280;33364;50.766;15.338;2023-08-17T07:49:07;95532.66;;;24.94;67.54
47636;BME280;33364;50.766;15.338;2023-08-17T07:51:32;95531.44;;;25.14;70.95
47636;BME280;33364;50.766;15.338;2023-08-17T07:54:00;95531.69;;;25.05;71.66
47636;BME280;33364;50.766;15.338;2023-08-17T07:56:26;95534.16;;;25.17;69.75
47636;BME280;33364;50.766;15.338;2023-08-17T07:58:54;95530.47;;;25.29;64.53
47636;BME280;33364;50.766;15.338;2023-08-17T08:01:20;95530.00;;;25.23;63.58
47636;BME280;33364;50.766;15.338;2023-08-17T08:03:46;95525.25;;;25.13;66.64
47636;BME280;33364;50.766;15.338;2023-08-17T08:06:12;95528.72;;;24.88;66.84
47636;BME280;33364;50.766;15.338;2023-08-17T08:08:39;95524.72;;;24.59;66.49
47636;BME280;33364;50.766;15.338;2023-08-17T08:11:05;95519.56;;;24.27;69.19
47636;BME280;33364;50.766;15.338;2023-08-17T08:13:31;95523.00;;;24.24;70.61
47636;BME280;33364;50.766;15.338;2023-08-17T08:15:58;95521.56;;;24.30;73.10
47636;BME280;33364;50.766;15.338;2023-08-17T08:18:25;95531.09;;;24.70;70.90
47636;BME280;33364;50.766;15.338;2023-08-17T08:20:50;95526.25;;;24.79;69.39
47636;BME280;33364;50.766;15.338;2023-08-17T08:23:17;95513.28;;;25.14;69.17
47636;BME280;33364;50.766;15.338;2023-08-17T08:25:42;95510.19;;;25.42;64.62
47636;BME280;33364;50.766;15.338;2023-08-17T08:28:08;95509.88;;;25.77;63.63
47636;BME280;33364;50.766;15.338;2023-08-17T08:30:34;95517.59;;;25.49;60.54
47636;BME280;33364;50.766;15.338;2023-08-17T08:33:01;95519.22;;;25.83;58.99
47636;BME280;33364;50.766;15.338;2023-08-17T08:35:27;95521.41;;;26.04;62.05
47636;BME280;33364;50.766;15.338;2023-08-17T08:37:54;95527.09;;;26.29;60.93
47636;BME280;33364;50.766;15.338;2023-08-17T08:40:26;95519.13;;;26.43;61.25
47636;BME280;33364;50.766;15.338;2023-08-17T08:42:53;95520.00;;;26.54;57.76
47636;BME280;33364;50.766;15.338;2023-08-17T08:45:20;95515.75;;;26.57;57.04
47636;BME280;33364;50.766;15.338;2023-08-17T08:47:47;95517.16;;;26.84;60.93
47636;BME280;33364;50.766;15.338;2023-08-17T08:50:17;95521.94;;;26.54;58.03
47636;BME280;33364;50.766;15.338;2023-08-17T08:53:04;95508.38;;;26.98;58.72
47636;BME280;33364;50.766;15.338;2023-08-17T08:55:38;95504.75;;;26.86;58.95
47636;BME280;33364;50.766;15.338;2023-08-17T08:58:07;95509.47;;;26.89;56.25
47636;BME280;33364;50.766;15.338;2023-08-17T09:00:33;95502.66;;;27.10;57.06
47636;BME280;33364;50.766;15.338;2023-08-17T09:03:02;95518.28;;;26.35;56.03
47636;BME280;33364;50.766;15.338;2023-08-17T09:05:31;95512.47;;;26.81;56.88
47636;BME280;33364;50.766;15.338;2023-08-17T09:07:57;95513.00;;;26.97;57.13
47636;BME280;33364;50.766;15.338;2023-08-17T09:10:24;95508.88;;;27.14;55.54
47636;BME280;33364;50.766;15.338;2023-08-17T09:12:50;95502.91;;;27.52;56.58
47636;BME280;33364;50.766;15.338;2023-08-17T09:15:16;95508.25;;;27.45;56.04
47636;BME280;33364;50.766;15.338;2023-08-17T09:17:42;95510.75;;;27.71;55.40
47636;BME280;33364;50.766;15.338;2023-08-17T09:20:08;95514.47;;;27.46;56.60
47636;BME280;33364;50.766;15.338;2023-08-17T09:22:42;95509.25;;;27.85;56.56
47636;BME280;33364;50.766;15.338;2023-08-17T09:25:10;95512.00;;;28.02;54.06
47636;BME280;33364;50.766;15.338;2023-08-17T09:27:37;95504.91;;;27.62;53.17
47636;BME280;33364;50.766;15.338;2023-08-17T09:32:31;95504.28;;;28.01;54.28
47636;BME280;33364;50.766;15.338;2023-08-17T09:34:57;95502.75;;;28.10;53.47
47636;BME280;33364;50.766;15.338;2023-08-17T09:37:27;95498.13;;;28.25;54.62
47636;BME280;33364;50.766;15.338;2023-08-17T09:39:53;95501.97;;;28.10;52.34
47636;BME280;33364;50.766;15.338;2023-08-17T09:42:20;95493.91;;;28.52;49.71
47636;BME280;33364;50.766;15.338;2023-08-17T09:44:47;95495.13;;;28.80;50.36
47636;BME280;33364;50.766;15.338;2023-08-17T09:47:13;95494.31;;;28.83;51.77
47636;BME280;33364;50.766;15.338;2023-08-17T09:49:38;95490.00;;;28.22;51.00
47636;BME280;33364;50.766;15.338;2023-08-17T09:52:04;95488.50;;;28.74;52.08
47636;BME280;33364;50.766;15.338;2023-08-17T09:54:31;95485.78;;;28.91;50.47
47636;BME280;33364;50.766;15.338;2023-08-17T09:56:58;95481.88;;;29.17;49.34
47636;BME280;33364;50.766;15.338;2023-08-17T09:59:23;95488.47;;;29.34;48.66
47636;BME280;33364;50.766;15.338;2023-08-17T10:01:51;95479.13;;;29.31;49.51
47636;BME280;33364;50.766;15.338;2023-08-17T10:04:21;95483.75;;;29.49;50.48
47636;BME280;33364;50.766;15.338;2023-08-17T10:06:58;95479.44;;;29.58;48.21
47636;BME280;33364;50.766;15.338;2023-08-17T10:09:30;95481.53;;;28.80;49.33
47636;BME280;33364;50.766;15.338;2023-08-17T10:11:57;95479.94;;;28.65;51.46
47636;BME280;33364;50.766;15.338;2023-08-17T10:14:35;95492.38;;;28.44;52.51
47636;BME280;33364;50.766;15.338;2023-08-17T10:17:07;95490.00;;;29.24;50.90
47636;BME280;33364;50.766;15.338;2023-08-17T10:19:49;95485.34;;;28.50;51.86
47636;BME280;33364;50.766;15.338;2023-08-17T10:22:36;95475.28;;;29.08;52.82
47636;BME280;33364;50.766;15.338;2023-08-17T10:25:05;95480.75;;;28.79;50.78
47636;BME280;33364;50.766;15.338;2023-08-17T10:27:34;95486.16;;;28.62;50.57
47636;BME280;33364;50.766;15.338;2023-08-17T10:30:01;95485.75;;;28.31;52.41
47636;BME280;33364;50.766;15.338;2023-08-17T10:32:27;95495.47;;;27.46;54.51
47636;BME280;33364;50.766;15.338;2023-08-17T10:34:53;95493.59;;;26.88;55.25
47636;BME280;33364;50.766;15.338;2023-08-17T10:37:20;95491.09;;;27.20;54.50
47636;BME280;33364;50.766;15.338;2023-08-17T10:39:48;95491.81;;;27.10;55.10
47636;BME280;33364;50.766;15.338;2023-08-17T10:42:14;95489.09;;;27.10;54.44
47636;BME280;33364;50.766;15.338;2023-08-17T10:49:51;95492.41;;;27.47;53.25
47636;BME280;33364;50.766;15.338;2023-08-17T10:52:31;95493.13;;;27.34;54.05
47636;BME280;33364;50.766;15.338;2023-08-17T10:55:02;95493.38;;;27.18;53.44
47636;BME280;33364;50.766;15.338;2023-08-17T10:57:35;95486.31;;;27.03;53.02
47636;BME280;33364;50.766;15.338;2023-08-17T11:00:13;95484.28;;;27.51;51.98
47636;BME280;33364;50.766;15.338;2023-08-17T11:02:40;95492.19;;;27.81;53.79
47636;BME280;33364;50.766;15.338;2023-08-17T11:05:06;95487.47;;;27.63;52.95
47636;BME280;33364;50.766;15.338;2023-08-17T11:07:45;95484.50;;;28.00;51.99
47636;BME280;33364;50.766;15.338;2023-08-17T11:12:46;95486.94;;;28.44;50.29
47636;BME280;33364;50.766;15.338;2023-08-17T11:15:11;95494.66;;;28.28;52.51
47636;BME280;33364;50.766;15.338;2023-08-17T11:17:37;95484.06;;;27.98;51.18
47636;BME280;33364;50.766;15.338;2023-08-17T11:20:04;95484.75;;;27.67;50.86
47636;BME280;33364;50.766;15.338;2023-08-17T11:22:30;95485.16;;;27.72;51.41
47636;BME280;33364;50.766;15.338;2023-08-17T11:24:57;95480.47;;;27.59;52.75
47636;BME280;33364;50.766;15.338;2023-08-17T11:27:24;95481.91;;;27.46;53.05
47636;BME280;33364;50.766;15.338;2023-08-17T11:29:49;95472.97;;;27.38;49.83
47636;BME280;33364;50.766;15.338;2023-08-17T11:32:16;95481.22;;;27.56;49.53
47636;BME280;33364;50.766;15.338;2023-08-17T11:34:43;95472.75;;;27.68;51.78
47636;BME280;33364;50.766;15.338;2023-08-17T11:37:11;95480.06;;;27.60;52.52
47636;BME280;33364;50.766;15.338;2023-08-17T11:39:37;95472.63;;;27.43;53.42
47636;BME280;33364;50.766;15.338;2023-08-17T11:42:03;95481.91;;;27.39;55.22
47636;BME280;33364;50.766;15.338;2023-08-17T11:44:29;95482.88;;;27.06;54.86
47636;BME280;33364;50.766;15.338;2023-08-17T11:46:55;95485.59;;;27.13;55.17
47636;BME280;33364;50.766;15.338;2023-08-17T11:49:21;95483.69;;;27.13;53.90
47636;BME280;33364;50.766;15.338;2023-08-17T11:51:51;95474.63;;;26.92;54.32
47636;BME280;33364;50.766;15.338;2023-08-17T11:54:17;95478.97;;;27.03;54.40
47636;BME280;33364;50.766;15.338;2023-08-17T11:56:43;95483.06;;;27.38;54.32
47636;BME280;33364;50.766;15.338;2023-08-17T11:59:13;95481.06;;;27.27;53.41
47636;BME280;33364;50.766;15.338;2023-08-17T12:01:48;95473.13;;;27.66;54.71
47636;BME280;33364;50.766;15.338;2023-08-17T12:04:14;95473.97;;;27.81;51.74
47636;BME280;33364;50.766;15.338;2023-08-17T12:06:44;95463.53;;;28.01;53.26
47636;BME280;33364;50.766;15.338;2023-08-17T12:09:12;95471.22;;;27.70;51.67
47636;BME280;33364;50.766;15.338;2023-08-17T12:11:40;95470.66;;;27.40;52.46
47636;BME280;33364;50.766;15.338;2023-08-17T12:14:11;95470.16;;;27.17;54.05
47636;BME280;33364;50.766;15.338;2023-08-17T12:16:50;95460.06;;;27.14;54.27
47636;BME280;33364;50.766;15.338;2023-08-17T12:19:15;95462.47;;;27.29;53.34
47636;BME280;33364;50.766;15.338;2023-08-17T12:21:45;95448.56;;;27.38;53.74
47636;BME280;33364;50.766;15.338;2023-08-17T12:24:11;95454.97;;;27.02;54.86
47636;BME280;33364;50.766;15.338;2023-08-17T12:26:43;95450.75;;;27.11;54.71
47636;BME280;33364;50.766;15.338;2023-08-17T12:29:09;95448.75;;;27.81;53.73
47636;BME280;33364;50.766;15.338;2023-08-17T12:31:35;95450.81;;;28.40;52.88
47636;BME280;33364;50.766;15.338;2023-08-17T12:34:01;95433.25;;;27.85;51.25
47636;BME280;33364;50.766;15.338;2023-08-17T12:36:27;95437.50;;;27.82;53.53
47636;BME280;33364;50.766;15.338;2023-08-17T12:38:53;95431.66;;;27.69;53.76
47636;BME280;33364;50.766;15.338;2023-08-17T12:41:19;95435.50;;;27.61;52.95
47636;BME280;33364;50.766;15.338;2023-08-17T12:43:44;95429.19;;;27.40;55.06
47636;BME280;33364;50.766;15.338;2023-08-17T12:46:10;95425.31;;;27.37;57.63
47636;BME280;33364;50.766;15.338;2023-08-17T12:48:37;95425.47;;;26.93;56.82
47636;BME280;33364;50.766;15.338;2023-08-17T12:51:03;95424.31;;;26.94;58.25
47636;BME280;33364;50.766;15.338;2023-08-17T12:53:29;95415.72;;;26.85;60.47
47636;BME280;33364;50.766;15.338;2023-08-17T12:55:55;95411.81;;;26.82;60.39
47636;BME280;33364;50.766;15.338;2023-08-17T12:58:21;95404.88;;;26.85;61.39
47636;BME280;33364;50.766;15.338;2023-08-17T13:00:47;95406.38;;;26.79;60.79
47636;BME280;33364;50.766;15.338;2023-08-17T13:03:16;95397.03;;;26.69;61.42
47636;BME280;33364;50.766;15.338;2023-08-17T13:05:43;95407.84;;;26.66;61.87